• Join FlightAware (Why Join?)
  • Login
  • US Flag 
12:35PM EDT


 

Airport Tracker/Info


-or-


 

Live Flight TrackerFlight Track Log ✈ USC105 ✈ 23-May-2013 ✈ KYIP - KDPA

Flight Track Log - Related Links

Times and Time Zones

All times are in EDT time to prevent confusion due to time zone crossing. See the USC105 flight status page for this flight to view local times or setup timezone preferences in your user account.

Time Position Orientation Groundspeed Altitude Reporting Facility
EDT Latitude Longitude Course Direction KTS MPH feet Rate Location/Type
12:11AM 42.2439 -83.5789 272° West 119 137 2,200  Level Cleveland Center
12:12AM 42.2406 -83.6264 265° West 130 150 3,200 900 Climbing Cleveland Center
12:13AM 42.2414 -83.6797 271° West 134 154 4,100 780 Climbing Cleveland Center
12:13AM 42.2422 -83.7247 271° West 147 169 4,700 720 Climbing Cleveland Center
12:14AM 42.2386 -83.7806 265° West 153 176 5,500 480 Climbing Cleveland Center
12:16AM 42.2347 -83.8783 267° West 159 183 6,100 180 Climbing Chicago Center
12:17AM 42.2347 -83.9469 270° West 168 193 6,100  Level Chicago Center
12:18AM 42.2306 -84.0158 265° West 178 205 6,100  Level Chicago Center
12:19AM 42.2267 -84.0842 266° West 182 209 6,100  Level Chicago Center
12:20AM 42.2211 -84.1525 264° West 184 212 6,100  Level Chicago Center
12:21AM 42.2158 -84.2211 264° West 181 208 6,100  Level Chicago Center
12:22AM 42.2125 -84.2908 266° West 185 213 6,100  Level Chicago Center
12:23AM 42.2089 -84.3592 266° West 184 212 6,100  Level Chicago Center
12:24AM 42.2042 -84.4278 265° West 185 213 6,100  Level Chicago Center
12:25AM 42.2011 -84.4958 267° West 184 212 6,100  Level Chicago Center
12:26AM 42.1967 -84.5761 266° West 185 213 6,100  Level Chicago Center
12:27AM 42.1911 -84.6453 264° West 187 215 6,100  Level Chicago Center
12:28AM 42.1867 -84.7144 265° West 187 215 6,100  Level Chicago Center
12:29AM 42.1828 -84.7842 266° West 187 215 6,100  Level Chicago Center
12:30AM 42.1783 -84.8533 265° West 187 215 6,100  Level Chicago Center
12:31AM 42.1739 -84.9219 265° West 186 214 6,100  Level Chicago Center
12:32AM 42.1700 -84.9906 266° West 185 213 6,100 60 Level Chicago Center
12:33AM 42.1653 -85.0600 265° West 186 214 6,300 360 Climbing Chicago Center
12:34AM 42.1606 -85.1233 264° West 178 205 6,900 360 Climbing Chicago Center
12:35AM 42.1564 -85.1872 265° West 173 199 7,100 60 Climbing Chicago Center
12:36AM 42.1511 -85.2564 264° West 182 209 7,100 -60 Level Chicago Center
12:37AM 42.1461 -85.3383 265° West 185 213 7,000  Descending Chicago Center
12:38AM 42.1414 -85.4067 265° West 184 212 7,100  Climbing Chicago Center
12:39AM 42.1369 -85.4753 265° West 185 213 7,000  Descending Chicago Center
12:40AM 42.1322 -85.5431 265° West 184 212 7,100  Climbing Chicago Center
12:41AM 42.1275 -85.6108 265° West 184 212 7,000 -60 Descending Chicago Center
12:42AM 42.1225 -85.6789 264° West 183 211 7,000  Level Chicago Center
12:44AM 42.1178 -85.7467 265° West 183 211 7,000  Level Chicago Center
12:45AM 42.1117 -85.8156 263° West 184 212 7,100  Climbing Chicago Center
12:46AM 42.1075 -85.8831 265° West 183 211 7,100 -60 Level Chicago Center
12:47AM 42.1022 -85.9525 264° West 186 214 7,000 -60 Descending Chicago Center
12:48AM 42.0969 -86.0208 264° West 185 213 7,000  Level Chicago Center
12:49AM 42.0919 -86.0900 264° West 186 214 7,100  Climbing Chicago Center
12:50AM 42.0861 -86.1594 264° West 187 215 7,100 -60 Level Chicago Center
12:51AM 42.0817 -86.2281 265° West 186 214 7,000  Descending Chicago Center
12:52AM 42.0761 -86.2969 264° West 185 213 7,100  Climbing Chicago Center
12:53AM 42.0711 -86.3678 265° West 189 217 7,000  Descending Chicago Center
12:54AM 42.0650 -86.4378 263° West 189 217 7,100  Climbing Chicago Center
12:55AM 42.0592 -86.5197 265° West 185 213 7,000 -60 Descending Chicago Center
12:56AM 42.0533 -86.5894 264° West 187 215 7,000  Level Chicago Center
12:57AM 42.0472 -86.6592 263° West 189 217 7,000  Level Chicago Center
12:58AM 42.0428 -86.7281 265° West 186 214 7,000  Level Chicago Center
12:59AM 42.0378 -86.7967 264° West 189 217 7,100  Climbing Chicago Center
01:00AM 42.0325 -86.8669 264° West 190 219 7,000 -60 Descending Chicago Center
01:01AM 42.0264 -86.9381 263° West 191 220 7,000  Level Chicago Center
01:02AM 42.0206 -87.0081 264° West 190 219 7,100  Climbing Chicago Center
01:03AM 42.0131 -87.0778 262° West 190 219 7,000 -60 Descending Chicago Center
01:04AM 42.0006 -87.1472 256° West 191 220 7,000  Level Chicago Center
01:05AM 41.9831 -87.2161 251° West 194 223 7,100  Climbing Chicago Center
01:06AM 41.9556 -87.2772 239° Southwest 195 224 7,000  Descending Chicago Center
01:07AM 41.9328 -87.3414 245° Southwest 189 217 7,100 -180 Climbing Chicago Center
01:08AM 41.9189 -87.4114 255° West 193 222 6,700 -540 Descending Chicago Center
01:09AM 41.9028 -87.4836 253° West 202 232 6,100 -360 Descending Chicago Center
01:10AM 41.9039 -87.5706 271° West 191 220 6,000 -60 Descending Chicago Center
01:11AM 41.9078 -87.6406 274° West 188 216 6,000  Level Chicago Center
01:12AM 41.9078 -87.7072 270° West 184 212 6,000  Level Chicago Center
01:13AM 41.9083 -87.7719 271° West 178 205 6,000  Level Chicago Center
01:14AM 41.9089 -87.8336 271° West 170 196 6,000  Level Chicago Center
01:15AM 41.9092 -87.8958 270° West 168 193 6,000 -600 Level Chicago Center
01:16AM 41.9086 -87.9631 269° West 175 201 4,800 -1,260 Descending Chicago Center
01:17AM 41.8942 -88.0403 256° West 198 228 3,500 -1,200 Descending Chicago Center
01:18AM 41.8731 -88.1111 248° West 206 237 2,500 -600 Descending Chicago Center
01:19AM 41.8619 -88.1764 257° West 198 228 2,400 -300 Descending Chicago Center
01:20AM 41.8633 -88.2333 272° West 171 197 1,900 -720 Descending Chicago Center
01:21AM 41.8853 -88.2567 322° Northwest 140 161 1,000 -900 Descending Chicago Center
01:23AM 41.9000 -88.2333 37° Northeast  Level FlightAware Approximate